Time;durP1;ratioP1;P1;durP2;ratioP2;P2;SDS_P1;SDS_P2;PMS_P1;PMS_P2;Temp;Humidity;BMP_temperature;BMP_pressure;BME280_temperature;BME280_humidity;BME280_pressure;Samples;Min_cycle;Max_cycle;Signal;HPM_P1;HPM_P2
2023/09/26 00:00:20;;;;;;;3.90;1.10;;;;;;;;;;5051347;28;20045;-67
2023/09/26 00:02:51;;;;;;;2.95;1.00;;;;;;;;;;5051689;28;20416;-67
2023/09/26 00:05:19;;;;;;;1.88;1.10;;;;;;;;;;5050669;28;20134;-67
2023/09/26 00:07:48;;;;;;;1.75;1.02;;;;;;;;;;5051263;28;20128;-67
2023/09/26 00:10:16;;;;;;;2.60;1.20;;;;;;;;;;5051150;28;20300;-69
2023/09/26 00:12:43;;;;;;;1.90;1.00;;;;;;;;;;5051596;28;20045;-68
2023/09/26 00:15:11;;;;;;;2.30;1.10;;;;;;;;;;5033895;28;20048;-68
2023/09/26 00:17:38;;;;;;;1.95;1.00;;;;;;;;;;5051570;28;20045;-71
2023/09/26 00:20:10;;;;;;;3.00;1.27;;;;;;;;;;5051109;28;20107;-67
2023/09/26 00:22:37;;;;;;;2.08;1.17;;;;;;;;;;5050957;28;20545;-68
2023/09/26 00:25:04;;;;;;;2.92;1.30;;;;;;;;;;5050790;28;20048;-68
2023/09/26 00:27:31;;;;;;;3.67;1.10;;;;;;;;;;5051318;28;20144;-68
2023/09/26 00:29:58;;;;;;;2.05;1.20;;;;;;;;;;5050903;28;20052;-67
2023/09/26 00:32:25;;;;;;;4.28;1.17;;;;;;;;;;5050871;28;20045;-71
2023/09/26 00:34:52;;;;;;;2.42;1.10;;;;;;;;;;5050660;28;20049;-67
2023/09/26 00:37:18;;;;;;;2.53;1.25;;;;;;;;;;5051012;28;20135;-68
2023/09/26 00:39:46;;;;;;;1.90;1.15;;;;;;;;;;5050807;28;20049;-68
2023/09/26 00:42:13;;;;;;;1.50;0.95;;;;;;;;;;5051116;28;20056;-67
2023/09/26 00:44:39;;;;;;;3.63;1.05;;;;;;;;;;5050764;28;20048;-67
2023/09/26 00:47:06;;;;;;;2.53;1.20;;;;;;;;;;5050761;28;20127;-71
2023/09/26 00:49:33;;;;;;;2.00;1.05;;;;;;;;;;5033005;28;20527;-67
2023/09/26 00:52:01;;;;;;;2.65;1.40;;;;;;;;;;5050661;28;20045;-72
2023/09/26 00:54:28;;;;;;;2.80;1.10;;;;;;;;;;5050684;28;20048;-69
2023/09/26 00:56:57;;;;;;;3.30;1.23;;;;;;;;;;5050355;28;20529;-73
2023/09/26 00:59:25;;;;;;;2.58;1.00;;;;;;;;;;5050810;28;20080;-71
2023/09/26 01:01:51;;;;;;;2.00;1.00;;;;;;;;;;5050468;28;20467;-68
2023/09/26 01:04:19;;;;;;;5.57;1.15;;;;;;;;;;5050095;28;20045;-68
2023/09/26 01:06:47;;;;;;;3.45;1.35;;;;;;;;;;5050854;28;20053;-67
2023/09/26 01:09:14;;;;;;;4.03;1.20;;;;;;;;;;5050045;28;20081;-69
2023/09/26 01:11:42;;;;;;;2.08;1.02;;;;;;;;;;5050150;28;20131;-68
2023/09/26 01:14:09;;;;;;;2.33;1.30;;;;;;;;;;5050140;28;20056;-67
2023/09/26 01:16:35;;;;;;;3.17;1.20;;;;;;;;;;5049725;28;20045;-69
2023/09/26 01:19:02;;;;;;;4.03;1.15;;;;;;;;;;5050386;28;20048;-69
2023/09/26 01:21:29;;;;;;;2.35;1.00;;;;;;;;;;5049724;28;20579;-70
2023/09/26 01:23:56;;;;;;;2.65;1.10;;;;;;;;;;5049568;28;20049;-68
2023/09/26 01:26:23;;;;;;;1.80;1.05;;;;;;;;;;5049789;28;20067;-69
2023/09/26 01:28:51;;;;;;;2.05;1.00;;;;;;;;;;5049996;28;20056;-68
2023/09/26 01:31:17;;;;;;;2.67;1.25;;;;;;;;;;5049655;28;20497;-70
2023/09/26 01:33:44;;;;;;;2.95;1.25;;;;;;;;;;5049628;28;20053;-67
2023/09/26 01:36:11;;;;;;;2.17;1.20;;;;;;;;;;5049438;28;20526;-68
2023/09/26 01:38:38;;;;;;;1.60;0.93;;;;;;;;;;5049712;28;20048;-69
2023/09/26 01:41:04;;;;;;;2.05;1.10;;;;;;;;;;5049492;28;20080;-68
2023/09/26 01:43:31;;;;;;;1.73;1.00;;;;;;;;;;5049658;28;20448;-71
2023/09/26 01:45:58;;;;;;;1.80;1.10;;;;;;;;;;5049690;28;20068;-73
2023/09/26 01:48:24;;;;;;;2.13;1.13;;;;;;;;;;5049924;28;20074;-74
2023/09/26 01:50:51;;;;;;;3.10;1.13;;;;;;;;;;5049351;28;20053;-73
2023/09/26 01:53:18;;;;;;;3.28;1.05;;;;;;;;;;5049268;28;20479;-70
2023/09/26 01:55:45;;;;;;;2.85;1.30;;;;;;;;;;5049311;28;20489;-68
2023/09/26 01:58:14;;;;;;;2.22;0.95;;;;;;;;;;5049558;28;20071;-69
2023/09/26 02:00:42;;;;;;;1.58;0.90;;;;;;;;;;5049703;28;20061;-68
2023/09/26 02:03:08;;;;;;;2.72;1.15;;;;;;;;;;5049217;28;20444;-71
2023/09/26 02:05:35;;;;;;;2.22;1.20;;;;;;;;;;5049317;28;20544;-71
2023/09/26 02:08:02;;;;;;;2.00;1.05;;;;;;;;;;5049026;28;20121;-69
2023/09/26 02:10:29;;;;;;;2.17;1.15;;;;;;;;;;5048312;28;20056;-70
2023/09/26 02:12:55;;;;;;;3.85;1.30;;;;;;;;;;5049163;28;20063;-68
2023/09/26 02:15:22;;;;;;;3.05;1.30;;;;;;;;;;5049056;28;20416;-70
2023/09/26 02:17:49;;;;;;;2.13;1.20;;;;;;;;;;5048943;28;20045;-68
2023/09/26 02:20:17;;;;;;;2.22;1.20;;;;;;;;;;5049536;28;20128;-68
2023/09/26 02:22:47;;;;;;;2.53;1.00;;;;;;;;;;5049083;28;20135;-70
2023/09/26 02:25:15;;;;;;;3.38;1.20;;;;;;;;;;5049156;28;20045;-71
2023/09/26 02:27:43;;;;;;;1.95;1.10;;;;;;;;;;5031388;28;20063;-67
2023/09/26 02:30:13;;;;;;;1.67;0.98;;;;;;;;;;5051912;28;20577;-68
2023/09/26 02:32:40;;;;;;;1.67;1.08;;;;;;;;;;5053297;28;20045;-68
2023/09/26 02:35:10;;;;;;;2.42;1.25;;;;;;;;;;5053357;28;20056;-67
2023/09/26 02:37:38;;;;;;;2.50;1.10;;;;;;;;;;5053073;28;20134;-71
2023/09/26 02:40:09;;;;;;;1.73;1.00;;;;;;;;;;5053015;28;20546;-70
2023/09/26 02:42:38;;;;;;;1.67;1.00;;;;;;;;;;5053092;28;20045;-68
2023/09/26 02:45:05;;;;;;;4.38;0.90;;;;;;;;;;5052929;28;20048;-72
2023/09/26 02:47:32;;;;;;;2.33;1.30;;;;;;;;;;5052908;28;20049;-68
2023/09/26 02:49:59;;;;;;;3.17;1.23;;;;;;;;;;5053210;28;20166;-67
2023/09/26 02:52:25;;;;;;;2.50;1.10;;;;;;;;;;5032848;28;20046;-68
2023/09/26 02:54:53;;;;;;;1.98;0.98;;;;;;;;;;5032717;28;20053;-67
2023/09/26 02:57:22;;;;;;;2.83;1.30;;;;;;;;;;5032631;28;20067;-69
2023/09/26 02:59:48;;;;;;;2.30;1.10;;;;;;;;;;5033137;28;20413;-69
2023/09/26 03:02:15;;;;;;;2.28;1.00;;;;;;;;;;5032760;28;20052;-69
2023/09/26 03:04:46;;;;;;;1.85;0.95;;;;;;;;;;5032502;28;20456;-69
2023/09/26 03:07:12;;;;;;;1.77;1.00;;;;;;;;;;5032508;28;20056;-69
2023/09/26 03:09:39;;;;;;;1.95;1.08;;;;;;;;;;5032660;28;20053;-71
2023/09/26 03:12:06;;;;;;;1.77;0.98;;;;;;;;;;5032289;28;20053;-69
2023/09/26 03:14:33;;;;;;;2.35;1.20;;;;;;;;;;5032382;28;20498;-71
2023/09/26 03:17:00;;;;;;;2.60;1.33;;;;;;;;;;5032731;28;20111;-69
2023/09/26 03:19:26;;;;;;;2.40;1.30;;;;;;;;;;5032749;28;20056;-68
2023/09/26 03:21:53;;;;;;;2.50;1.00;;;;;;;;;;5032560;28;20076;-68
2023/09/26 03:24:20;;;;;;;1.65;0.82;;;;;;;;;;5031891;28;20409;-69
2023/09/26 03:26:46;;;;;;;1.77;1.02;;;;;;;;;;5032436;28;20052;-68
2023/09/26 03:29:13;;;;;;;2.35;1.00;;;;;;;;;;5032369;28;20080;-69
2023/09/26 03:31:41;;;;;;;1.98;0.98;;;;;;;;;;5032732;28;20055;-69
2023/09/26 03:34:11;;;;;;;2.75;1.23;;;;;;;;;;5032170;28;20135;-69
2023/09/26 03:36:37;;;;;;;2.25;1.25;;;;;;;;;;5032161;28;20111;-69
2023/09/26 03:39:05;;;;;;;1.98;1.20;;;;;;;;;;5030857;28;20051;-69
2023/09/26 03:41:32;;;;;;;2.35;1.20;;;;;;;;;;5031867;28;20544;-69
2023/09/26 03:43:59;;;;;;;1.55;1.00;;;;;;;;;;5031539;28;20041;-69
2023/09/26 03:46:25;;;;;;;2.28;1.10;;;;;;;;;;5032017;28;20045;-70
2023/09/26 03:48:53;;;;;;;2.78;1.17;;;;;;;;;;5032027;28;20041;-68
2023/09/26 03:51:19;;;;;;;3.08;1.30;;;;;;;;;;5042822;28;20095;-70
2023/09/26 03:53:47;;;;;;;1.95;1.17;;;;;;;;;;5051471;28;20045;-71
2023/09/26 03:56:13;;;;;;;1.95;1.15;;;;;;;;;;5051838;28;20077;-70
2023/09/26 03:58:40;;;;;;;1.70;1.13;;;;;;;;;;5051667;28;20124;-70
2023/09/26 04:01:08;;;;;;;2.38;1.20;;;;;;;;;;5051714;28;20099;-69
2023/09/26 04:03:39;;;;;;;2.85;1.20;;;;;;;;;;5051252;28;20056;-73
2023/09/26 04:06:06;;;;;;;;;;;;;;;;;;5052139;28;20123;-69
2023/09/26 04:08:33;;;;;;;2.42;1.17;;;;;;;;;;5051518;28;19928;-70
2023/09/26 04:10:59;;;;;;;3.20;1.10;;;;;;;;;;5051915;28;20147;-72
2023/09/26 04:13:26;;;;;;;3.10;1.40;;;;;;;;;;5051283;28;20045;-69
2023/09/26 04:15:53;;;;;;;2.10;1.20;;;;;;;;;;5051415;28;20477;-68
2023/09/26 04:18:23;;;;;;;3.13;1.20;;;;;;;;;;5049886;28;20101;-73
2023/09/26 04:20:50;;;;;;;2.58;1.15;;;;;;;;;;5051178;28;20522;-71
2023/09/26 04:23:17;;;;;;;2.72;1.20;;;;;;;;;;5051249;28;20148;-69
2023/09/26 04:25:44;;;;;;;2.28;1.25;;;;;;;;;;5051351;28;20117;-71
2023/09/26 04:28:11;;;;;;;2.25;1.20;;;;;;;;;;5051143;28;20508;-71
2023/09/26 04:30:39;;;;;;;2.50;1.20;;;;;;;;;;5051073;28;20077;-68
2023/09/26 04:33:08;;;;;;;3.15;1.30;;;;;;;;;;5050815;28;20098;-70
2023/09/26 04:35:36;;;;;;;2.35;1.17;;;;;;;;;;5050572;28;20481;-69
2023/09/26 04:38:04;;;;;;;2.90;1.30;;;;;;;;;;5050274;28;20421;-68
2023/09/26 04:40:31;;;;;;;1.95;1.08;;;;;;;;;;5050881;28;20076;-69
2023/09/26 04:43:03;;;;;;;2.72;1.05;;;;;;;;;;5050768;28;20045;-69
2023/09/26 04:45:31;;;;;;;3.70;1.27;;;;;;;;;;5050530;28;20697;-71
2023/09/26 04:48:01;;;;;;;2.10;0.98;;;;;;;;;;5050799;28;20053;-69
2023/09/26 04:50:28;;;;;;;;;;;;;;;;;;5051172;28;20060;-70
2023/09/26 04:52:56;;;;;;;1.95;1.20;;;;;;;;;;5049560;28;19927;-70
2023/09/26 04:55:23;;;;;;;2.15;1.10;;;;;;;;;;5050235;28;20551;-72
2023/09/26 04:57:50;;;;;;;3.03;1.20;;;;;;;;;;5050488;28;20685;-74
2023/09/26 05:00:17;;;;;;;3.75;1.40;;;;;;;;;;5050387;28;20536;-74
2023/09/26 05:02:45;;;;;;;2.55;1.30;;;;;;;;;;5050546;28;20049;-75
2023/09/26 05:05:12;;;;;;;3.05;1.17;;;;;;;;;;5049977;28;20041;-69
2023/09/26 05:07:43;;;;;;;2.25;1.30;;;;;;;;;;5050235;28;20128;-69
2023/09/26 05:10:12;;;;;;;2.50;1.30;;;;;;;;;;5050298;28;20045;-68
2023/09/26 05:12:42;;;;;;;2.33;1.48;;;;;;;;;;5050119;28;20037;-69
2023/09/26 05:15:15;;;;;;;2.97;1.30;;;;;;;;;;5049724;28;20048;-69
2023/09/26 05:17:42;;;;;;;1.95;1.30;;;;;;;;;;5050334;28;20068;-68
2023/09/26 05:20:12;;;;;;;2.50;1.20;;;;;;;;;;5050149;28;20127;-69
2023/09/26 05:22:42;;;;;;;2.00;1.10;;;;;;;;;;5050370;28;20056;-73
2023/09/26 05:25:10;;;;;;;2.67;1.10;;;;;;;;;;5049427;28;20055;-68
2023/09/26 05:27:38;;;;;;;1.95;1.00;;;;;;;;;;5050353;28;20049;-69
2023/09/26 05:30:11;;;;;;;5.93;1.50;;;;;;;;;;5049794;28;20501;-69
2023/09/26 05:32:40;;;;;;;1.95;1.10;;;;;;;;;;5050057;28;20489;-72
2023/09/26 05:35:09;;;;;;;2.50;1.05;;;;;;;;;;5049661;28;20048;-70
2023/09/26 05:37:37;;;;;;;4.85;1.35;;;;;;;;;;5050205;28;20136;-68
2023/09/26 05:40:09;;;;;;;2.75;1.30;;;;;;;;;;5049706;28;20048;-70
2023/09/26 05:42:37;;;;;;;3.90;1.35;;;;;;;;;;5050013;28;20045;-69
2023/09/26 05:45:06;;;;;;;5.10;1.30;;;;;;;;;;5049243;28;20535;-70
2023/09/26 05:47:32;;;;;;;2.17;1.38;;;;;;;;;;5049775;28;20052;-72
2023/09/26 05:50:00;;;;;;;4.43;1.65;;;;;;;;;;5049236;28;20686;-70
2023/09/26 05:52:27;;;;;;;3.60;1.42;;;;;;;;;;5029664;28;20549;-70
2023/09/26 05:54:54;;;;;;;2.75;1.30;;;;;;;;;;5029345;28;20402;-74
2023/09/26 05:57:21;;;;;;;2.67;1.40;;;;;;;;;;5029499;28;20473;-74
2023/09/26 05:59:48;;;;;;;2.55;1.40;;;;;;;;;;5029633;28;20046;-73
2023/09/26 06:02:16;;;;;;;1.85;1.13;;;;;;;;;;5029612;28;20053;-74
2023/09/26 06:04:44;;;;;;;3.63;1.33;;;;;;;;;;5028665;28;20045;-72
2023/09/26 06:07:12;;;;;;;4.38;1.40;;;;;;;;;;5029244;28;20049;-72
2023/09/26 06:09:39;;;;;;;2.13;1.00;;;;;;;;;;5029371;28;20045;-70
2023/09/26 06:12:23;;;;;;;4.93;1.52;;;;;;;;;;5029559;28;20049;-71
2023/09/26 06:14:50;;;;;;;2.72;1.20;;;;;;;;;;5029111;28;20045;-73
2023/09/26 06:17:17;;;;;;;4.22;1.30;;;;;;;;;;5029171;28;20595;-72
2023/09/26 06:19:46;;;;;;;3.15;1.77;;;;;;;;;;5029250;28;20073;-72
2023/09/26 06:22:14;;;;;;;2.90;1.40;;;;;;;;;;5029587;28;20041;-72
2023/09/26 06:24:40;;;;;;;3.72;1.60;;;;;;;;;;5028911;28;20050;-73
2023/09/26 06:27:07;;;;;;;2.42;1.40;;;;;;;;;;5029088;28;20568;-72
2023/09/26 06:29:41;;;;;;;2.67;1.33;;;;;;;;;;5029348;28;20128;-72
2023/09/26 06:32:08;;;;;;;3.17;1.48;;;;;;;;;;5029298;28;20050;-73
2023/09/26 06:34:35;;;;;;;3.33;1.25;;;;;;;;;;5029190;28;20061;-74
2023/09/26 06:37:03;;;;;;;2.00;1.30;;;;;;;;;;5029320;28;20133;-71
2023/09/26 06:39:30;;;;;;;2.92;1.50;;;;;;;;;;5028547;28;20064;-74
2023/09/26 06:41:57;;;;;;;4.65;1.30;;;;;;;;;;5029324;28;20042;-74
2023/09/26 06:44:23;;;;;;;2.45;1.27;;;;;;;;;;5028731;28;20416;-72
2023/09/26 06:46:51;;;;;;;1.52;0.98;;;;;;;;;;5011777;28;20092;-74
2023/09/26 06:49:19;;;;;;;3.00;1.10;;;;;;;;;;5029154;28;20421;-73
2023/09/26 06:51:46;;;;;;;5.13;1.63;;;;;;;;;;5043675;28;20087;-74
2023/09/26 06:54:13;;;;;;;2.42;1.20;;;;;;;;;;5048938;28;20040;-72
2023/09/26 06:56:40;;;;;;;3.05;1.13;;;;;;;;;;5048616;28;20504;-74
2023/09/26 06:59:08;;;;;;;2.85;1.25;;;;;;;;;;5048856;28;20099;-73
2023/09/26 07:01:35;;;;;;;2.30;1.20;;;;;;;;;;5048930;28;20056;-73
2023/09/26 07:04:02;;;;;;;2.55;1.33;;;;;;;;;;5048792;28;20536;-72
2023/09/26 07:06:30;;;;;;;1.80;1.13;;;;;;;;;;5048483;28;20576;-72
2023/09/26 07:08:58;;;;;;;2.35;1.10;;;;;;;;;;5048878;28;20041;-73
2023/09/26 07:11:26;;;;;;;2.92;1.10;;;;;;;;;;5048571;28;20045;-73
2023/09/26 07:13:53;;;;;;;3.30;1.20;;;;;;;;;;5048806;28;20072;-72
2023/09/26 07:16:20;;;;;;;1.58;1.00;;;;;;;;;;5051032;28;20056;-73
2023/09/26 07:18:46;;;;;;;1.70;1.00;;;;;;;;;;5052435;28;20124;-72
2023/09/26 07:21:14;;;;;;;3.75;1.00;;;;;;;;;;5052031;28;20133;-72
2023/09/26 07:23:40;;;;;;;2.28;1.13;;;;;;;;;;5052459;28;20055;-74
2023/09/26 07:26:17;;;;;;;2.72;1.10;;;;;;;;;;5051689;28;20088;-73
2023/09/26 07:28:44;;;;;;;4.28;1.02;;;;;;;;;;5052380;28;20409;-73
2023/09/26 07:31:13;;;;;;;1.60;1.00;;;;;;;;;;5052051;28;20144;-73
2023/09/26 07:33:41;;;;;;;1.80;1.10;;;;;;;;;;5052117;28;20616;-74
2023/09/26 07:36:09;;;;;;;3.05;0.98;;;;;;;;;;5051561;28;20048;-73
2023/09/26 07:38:36;;;;;;;2.47;1.10;;;;;;;;;;5051686;28;20532;-74
2023/09/26 07:41:03;;;;;;;2.80;1.10;;;;;;;;;;5052059;28;20049;-73
2023/09/26 07:43:32;;;;;;;2.88;0.98;;;;;;;;;;5051701;28;20091;-72
2023/09/26 07:46:08;;;;;;;2.92;1.20;;;;;;;;;;5051792;28;20053;-73
2023/09/26 07:48:36;;;;;;;1.75;1.10;;;;;;;;;;5051650;28;20674;-72
2023/09/26 07:51:05;;;;;;;2.45;1.10;;;;;;;;;;5051445;28;20061;-72
2023/09/26 07:53:31;;;;;;;2.53;1.02;;;;;;;;;;5051874;28;20103;-73
2023/09/26 07:55:58;;;;;;;2.85;1.17;;;;;;;;;;5051524;28;20049;-74
2023/09/26 07:58:26;;;;;;;2.65;1.00;;;;;;;;;;5051709;28;20404;-74
2023/09/26 08:00:53;;;;;;;3.20;0.98;;;;;;;;;;5051502;28;20243;-73
2023/09/26 08:03:21;;;;;;;2.10;1.17;;;;;;;;;;5051567;28;20052;-73
2023/09/26 08:05:48;;;;;;;4.07;1.10;;;;;;;;;;5051249;28;20053;-73
2023/09/26 08:08:16;;;;;;;5.00;1.40;;;;;;;;;;5051463;28;20064;-74
2023/09/26 08:10:43;;;;;;;2.15;1.00;;;;;;;;;;5051304;28;20083;-73
2023/09/26 08:13:09;;;;;;;2.72;1.30;;;;;;;;;;5051411;28;20080;-73
2023/09/26 08:15:36;;;;;;;3.33;1.10;;;;;;;;;;5033489;28;20106;-74
2023/09/26 08:18:04;;;;;;;4.45;1.20;;;;;;;;;;5051246;28;20045;-73
2023/09/26 08:20:31;;;;;;;3.25;1.40;;;;;;;;;;5050908;28;20067;-72
2023/09/26 08:22:58;;;;;;;3.25;1.25;;;;;;;;;;5051428;28;20056;-72
2023/09/26 08:25:25;;;;;;;2.70;1.50;;;;;;;;;;5050773;28;20049;-72
2023/09/26 08:27:52;;;;;;;2.50;1.00;;;;;;;;;;5049893;28;20049;-72
2023/09/26 08:30:19;;;;;;;1.60;1.00;;;;;;;;;;5050784;28;20496;-73
2023/09/26 08:32:46;;;;;;;2.60;1.35;;;;;;;;;;5051251;28;20143;-73
2023/09/26 08:35:13;;;;;;;5.25;1.60;;;;;;;;;;5050998;28;20056;-74
2023/09/26 08:37:40;;;;;;;3.95;1.30;;;;;;;;;;5050499;28;20067;-72
2023/09/26 08:40:11;;;;;;;4.40;1.35;;;;;;;;;;5050879;28;20052;-73
2023/09/26 08:42:42;;;;;;;2.17;1.40;;;;;;;;;;5050732;28;20076;-74
2023/09/26 08:45:10;;;;;;;2.95;1.40;;;;;;;;;;5051136;28;20041;-71
2023/09/26 08:47:42;;;;;;;3.90;1.30;;;;;;;;;;5050598;28;20045;-72
2023/09/26 08:50:09;;;;;;;4.57;1.30;;;;;;;;;;5050978;28;20049;-73
2023/09/26 08:52:36;;;;;;;4.10;1.42;;;;;;;;;;5033017;28;20451;-73
2023/09/26 08:55:03;;;;;;;3.20;1.30;;;;;;;;;;5050525;28;20049;-73
2023/09/26 08:57:32;;;;;;;3.65;1.30;;;;;;;;;;5050500;28;20073;-73
2023/09/26 09:00:01;;;;;;;1.80;1.10;;;;;;;;;;5050561;28;20131;-72
2023/09/26 09:02:31;;;;;;;5.60;1.40;;;;;;;;;;5050369;28;20155;-73
2023/09/26 09:04:58;;;;;;;2.28;1.20;;;;;;;;;;5050320;28;20543;-72
2023/09/26 09:07:27;;;;;;;8.13;1.50;;;;;;;;;;5049985;28;20436;-73
2023/09/26 09:10:11;;;;;;;4.20;1.15;;;;;;;;;;5050013;28;20489;-72
2023/09/26 09:12:40;;;;;;;1.80;1.20;;;;;;;;;;5050287;28;20232;-72
2023/09/26 09:15:17;;;;;;;1.60;1.02;;;;;;;;;;5049004;28;20045;-73
2023/09/26 09:17:49;;;;;;;1.75;1.20;;;;;;;;;;5049800;28;20045;-73
2023/09/26 09:20:32;;;;;;;1.73;1.10;;;;;;;;;;5049972;28;20064;-73
2023/09/26 09:23:01;;;;;;;2.17;1.25;;;;;;;;;;5050173;28;20045;-74
2023/09/26 09:25:37;;;;;;;3.63;1.10;;;;;;;;;;5050195;28;20041;-73
2023/09/26 09:28:07;;;;;;;1.85;1.10;;;;;;;;;;5050077;28;20049;-72
2023/09/26 09:30:42;;;;;;;2.42;1.30;;;;;;;;;;5050226;28;20045;-72
2023/09/26 09:33:09;;;;;;;2.22;1.13;;;;;;;;;;5049906;28;20053;-73
2023/09/26 09:35:37;;;;;;;2.72;1.20;;;;;;;;;;5049738;28;20055;-72
2023/09/26 09:38:08;;;;;;;2.80;1.13;;;;;;;;;;5048967;28;20059;-74
2023/09/26 09:40:35;;;;;;;5.88;1.27;;;;;;;;;;5049519;28;20131;-70
2023/09/26 09:43:02;;;;;;;3.45;1.10;;;;;;;;;;5049637;28;20045;-71
2023/09/26 09:45:33;;;;;;;2.50;0.98;;;;;;;;;;5049725;28;20049;-72
2023/09/26 09:48:03;;;;;;;1.33;0.90;;;;;;;;;;5049425;28;20068;-73
2023/09/26 09:50:32;;;;;;;2.90;0.93;;;;;;;;;;5050020;28;20060;-72
2023/09/26 09:53:01;;;;;;;3.55;1.13;;;;;;;;;;5049290;28;20041;-73
2023/09/26 09:55:32;;;;;;;2.80;1.10;;;;;;;;;;5049256;28;20409;-71
2023/09/26 09:58:02;;;;;;;1.90;1.10;;;;;;;;;;5049251;28;20071;-73
2023/09/26 10:00:31;;;;;;;2.60;1.10;;;;;;;;;;5049832;28;20118;-73
2023/09/26 10:03:03;;;;;;;2.17;1.02;;;;;;;;;;5049336;28;20041;-72
2023/09/26 10:05:31;;;;;;;2.28;1.00;;;;;;;;;;5049554;28;20126;-72
2023/09/26 10:08:00;;;;;;;1.15;0.82;;;;;;;;;;5049074;28;20048;-74
2023/09/26 10:10:28;;;;;;;2.88;1.10;;;;;;;;;;5049284;28;20052;-72
2023/09/26 10:12:55;;;;;;;3.72;1.10;;;;;;;;;;5048986;28;20045;-72
2023/09/26 10:16:11;;;;;;;2.47;1.20;;;;;;;;;;5049084;28;20134;-72
2023/09/26 10:18:44;;;;;;;2.38;0.90;;;;;;;;;;5048944;28;20040;-72
2023/09/26 10:21:25;;;;;;;1.98;1.00;;;;;;;;;;5049249;28;20049;-73
2023/09/26 10:24:15;;;;;;;3.10;0.80;;;;;;;;;;5049322;28;20049;-74
2023/09/26 10:26:44;;;;;;;1.83;0.90;;;;;;;;;;5049040;28;20128;-72
2023/09/26 10:29:12;;;;;;;2.17;1.00;;;;;;;;;;5031371;28;20049;-73
2023/09/26 10:31:43;;;;;;;1.58;0.90;;;;;;;;;;5049275;28;20053;-73
2023/09/26 10:34:10;;;;;;;1.60;0.90;;;;;;;;;;5049257;28;20041;-73
2023/09/26 10:36:39;;;;;;;1.30;0.93;;;;;;;;;;5049199;28;20254;-72
2023/09/26 10:39:07;;;;;;;1.48;0.90;;;;;;;;;;5048601;28;20053;-72
2023/09/26 10:41:34;;;;;;;2.00;0.93;;;;;;;;;;5048937;28;20049;-73
2023/09/26 10:44:20;;;;;;;2.13;1.15;;;;;;;;;;5049055;28;20140;-73
2023/09/26 10:46:47;;;;;;;2.15;0.90;;;;;;;;;;5048582;28;20053;-73
2023/09/26 10:49:14;;;;;;;1.08;0.73;;;;;;;;;;5048538;28;20489;-72
2023/09/26 10:51:41;;;;;;;1.67;0.95;;;;;;;;;;5052265;28;20416;-73
2023/09/26 10:54:08;;;;;;;1.95;0.95;;;;;;;;;;5035002;28;20072;-73
2023/09/26 10:56:34;;;;;;;2.45;0.80;;;;;;;;;;5052858;28;20055;-71
2023/09/26 10:59:02;;;;;;;3.85;0.90;;;;;;;;;;5052456;28;20485;-73
2023/09/26 11:01:38;;;;;;;5.05;1.10;;;;;;;;;;5052668;28;20472;-72
2023/09/26 11:04:06;;;;;;;1.95;0.90;;;;;;;;;;5052778;28;20045;-71
2023/09/26 11:06:54;;;;;;;1.65;0.80;;;;;;;;;;5052591;28;20110;-74
2023/09/26 11:09:22;;;;;;;2.45;0.93;;;;;;;;;;5051991;28;20081;-73
2023/09/26 11:11:50;;;;;;;1.35;0.77;;;;;;;;;;5052455;28;20409;-73
2023/09/26 11:14:17;;;;;;;1.70;0.90;;;;;;;;;;5052319;28;20509;-73
2023/09/26 11:16:44;;;;;;;1.67;1.02;;;;;;;;;;5052703;28;20177;-74
2023/09/26 11:19:11;;;;;;;1.60;0.82;;;;;;;;;;5052212;28;20053;-73
2023/09/26 11:21:38;;;;;;;2.78;1.10;;;;;;;;;;5052314;28;20060;-73
2023/09/26 11:24:25;;;;;;;4.82;1.00;;;;;;;;;;5051906;28;20041;-74
2023/09/26 11:26:55;;;;;;;3.25;0.90;;;;;;;;;;5052482;28;20655;-73
2023/09/26 11:29:22;;;;;;;1.20;0.80;;;;;;;;;;5051874;28;20045;-72
2023/09/26 11:31:51;;;;;;;4.28;0.98;;;;;;;;;;5052188;28;20516;-74
2023/09/26 11:34:19;;;;;;;2.38;0.90;;;;;;;;;;5051910;28;20081;-73
2023/09/26 11:36:50;;;;;;;3.35;1.00;;;;;;;;;;5052669;28;20053;-74
2023/09/26 11:39:19;;;;;;;1.80;0.80;;;;;;;;;;5051553;28;20098;-68
2023/09/26 11:41:46;;;;;;;1.48;0.88;;;;;;;;;;5052157;28;20048;-69
2023/09/26 11:44:19;;;;;;;1.98;1.08;;;;;;;;;;5051598;28;20405;-69
2023/09/26 11:46:47;;;;;;;2.22;1.00;;;;;;;;;;5051972;28;20055;-68
2023/09/26 11:49:16;;;;;;;2.78;0.90;;;;;;;;;;5051591;28;20049;-73
2023/09/26 11:51:43;;;;;;;1.42;1.00;;;;;;;;;;5051884;28;20136;-69
2023/09/26 11:54:10;;;;;;;1.33;0.90;;;;;;;;;;5051640;28;20041;-69
2023/09/26 11:56:43;;;;;;;1.33;0.90;;;;;;;;;;5034194;28;20056;-69
2023/09/26 11:59:09;;;;;;;2.92;1.00;;;;;;;;;;5051303;28;20044;-70
2023/09/26 12:01:36;;;;;;;2.35;1.10;;;;;;;;;;5051859;28;20091;-71
2023/09/26 12:04:07;;;;;;;1.48;1.00;;;;;;;;;;5051245;28;20056;-69
2023/09/26 12:06:34;;;;;;;2.13;0.98;;;;;;;;;;5051564;28;20084;-72
2023/09/26 12:09:03;;;;;;;0.98;0.80;;;;;;;;;;5050939;28;20052;-69
2023/09/26 12:11:30;;;;;;;1.67;1.00;;;;;;;;;;5051346;28;20131;-69
2023/09/26 12:13:57;;;;;;;1.45;0.80;;;;;;;;;;5051462;28;20044;-68
2023/09/26 12:16:27;;;;;;;1.50;0.90;;;;;;;;;;5051209;28;20497;-68
2023/09/26 12:18:54;;;;;;;1.55;0.90;;;;;;;;;;5050962;28;20095;-68
2023/09/26 12:21:20;;;;;;;2.30;1.30;;;;;;;;;;5051270;28;20072;-74
2023/09/26 12:23:47;;;;;;;1.77;1.00;;;;;;;;;;5050896;28;20424;-70
2023/09/26 12:26:15;;;;;;;1.55;1.02;;;;;;;;;;5051169;28;20045;-70
2023/09/26 12:28:42;;;;;;;2.88;1.20;;;;;;;;;;5051191;28;20048;-69
2023/09/26 12:31:09;;;;;;;1.58;0.98;;;;;;;;;;5051486;28;20402;-71
2023/09/26 12:33:36;;;;;;;1.92;0.98;;;;;;;;;;5050748;28;20513;-69
2023/09/26 12:36:04;;;;;;;1.77;0.95;;;;;;;;;;5033384;28;20055;-70
2023/09/26 12:38:30;;;;;;;2.50;0.98;;;;;;;;;;5050557;28;20052;-68
2023/09/26 12:40:57;;;;;;;1.13;0.88;;;;;;;;;;5050801;28;20481;-69
2023/09/26 12:43:24;;;;;;;1.60;0.90;;;;;;;;;;5050755;28;20045;-69
2023/09/26 12:45:51;;;;;;;2.38;1.00;;;;;;;;;;5051167;28;20045;-69
2023/09/26 12:48:19;;;;;;;1.15;0.80;;;;;;;;;;5050832;28;20114;-72
2023/09/26 12:50:46;;;;;;;3.47;0.90;;;;;;;;;;5050475;28;20082;-69
2023/09/26 12:53:13;;;;;;;1.60;1.02;;;;;;;;;;5050625;28;20128;-73
2023/09/26 12:55:39;;;;;;;1.10;0.70;;;;;;;;;;5050745;28;20572;-70
2023/09/26 12:58:06;;;;;;;1.90;1.17;;;;;;;;;;5050711;28;20049;-72
2023/09/26 13:00:34;;;;;;;3.50;1.02;;;;;;;;;;5050627;28;20060;-68
2023/09/26 13:03:02;;;;;;;1.92;1.02;;;;;;;;;;5050444;28;20405;-70
2023/09/26 13:05:29;;;;;;;1.83;1.02;;;;;;;;;;5050437;28;20124;-71
2023/09/26 13:07:56;;;;;;;1.58;1.08;;;;;;;;;;5050337;28;20130;-68
2023/09/26 13:10:23;;;;;;;2.80;1.02;;;;;;;;;;5050179;28;20048;-71
2023/09/26 13:12:50;;;;;;;2.08;1.15;;;;;;;;;;5050037;28;20045;-69
2023/09/26 13:15:17;;;;;;;1.65;1.02;;;;;;;;;;5050189;28;20041;-68
2023/09/26 13:17:44;;;;;;;4.05;1.10;;;;;;;;;;5050120;28;20049;-68
2023/09/26 13:20:11;;;;;;;2.05;1.10;;;;;;;;;;5049559;28;20531;-70
2023/09/26 13:22:38;;;;;;;1.90;1.00;;;;;;;;;;5050103;28;20488;-72
2023/09/26 13:25:08;;;;;;;2.72;1.20;;;;;;;;;;5050175;28;20048;-73
2023/09/26 13:27:35;;;;;;;2.00;1.00;;;;;;;;;;5050150;28;20518;-70
2023/09/26 13:30:03;;;;;;;7.78;1.30;;;;;;;;;;5049727;28;20041;-72
2023/09/26 13:32:30;;;;;;;6.18;1.30;;;;;;;;;;5049896;28;20048;-71
2023/09/26 13:34:57;;;;;;;2.75;1.17;;;;;;;;;;5049722;28;20135;-72
2023/09/26 13:37:24;;;;;;;1.23;0.80;;;;;;;;;;5049761;28;20063;-70
2023/09/26 13:39:51;;;;;;;3.67;1.10;;;;;;;;;;5049426;28;20052;-71
2023/09/26 13:42:17;;;;;;;3.53;1.17;;;;;;;;;;5050225;28;20052;-68
2023/09/26 13:44:44;;;;;;;1.52;1.00;;;;;;;;;;5049711;28;20041;-70
2023/09/26 13:47:11;;;;;;;1.05;0.85;;;;;;;;;;5049673;28;20048;-70
2023/09/26 13:49:38;;;;;;;1.33;0.90;;;;;;;;;;5049452;28;20044;-69
2023/09/26 13:52:05;;;;;;;2.13;1.20;;;;;;;;;;5049376;28;20575;-72
2023/09/26 13:54:33;;;;;;;2.50;1.10;;;;;;;;;;5049305;28;20048;-74
2023/09/26 13:57:00;;;;;;;1.83;1.10;;;;;;;;;;5049499;28;20045;-72
2023/09/26 13:59:27;;;;;;;3.60;1.10;;;;;;;;;;5049430;28;20173;-72
2023/09/26 14:01:53;;;;;;;3.78;1.08;;;;;;;;;;5049517;28;20045;-70
2023/09/26 14:04:20;;;;;;;3.47;1.30;;;;;;;;;;5049136;28;20509;-71
2023/09/26 14:06:47;;;;;;;1.42;0.93;;;;;;;;;;5049352;28;20489;-72
2023/09/26 14:09:14;;;;;;;1.58;0.90;;;;;;;;;;5049138;28;20051;-68
2023/09/26 14:11:40;;;;;;;2.95;1.08;;;;;;;;;;5049478;28;20060;-71
2023/09/26 14:14:07;;;;;;;1.63;1.02;;;;;;;;;;5049275;28;20083;-73
2023/09/26 14:16:38;;;;;;;2.13;1.08;;;;;;;;;;5031612;28;20056;-72
2023/09/26 14:19:06;;;;;;;2.22;1.02;;;;;;;;;;5049420;28;20099;-68
2023/09/26 14:21:32;;;;;;;2.75;1.00;;;;;;;;;;5048778;28;20581;-71
2023/09/26 14:23:59;;;;;;;1.30;0.90;;;;;;;;;;5048561;28;20057;-72
2023/09/26 14:26:26;;;;;;;1.85;1.00;;;;;;;;;;5048719;28;20045;-72
2023/09/26 14:28:58;;;;;;;2.88;0.98;;;;;;;;;;5049075;28;20052;-70
2023/09/26 14:31:25;;;;;;;1.92;0.95;;;;;;;;;;5048835;28;20404;-72
2023/09/26 14:33:52;;;;;;;2.17;1.02;;;;;;;;;;5049349;28;20052;-72
2023/09/26 14:36:19;;;;;;;3.03;0.90;;;;;;;;;;5049231;28;20075;-71
2023/09/26 14:38:46;;;;;;;3.13;1.00;;;;;;;;;;5048852;28;20643;-69
2023/09/26 14:41:12;;;;;;;3.80;1.00;;;;;;;;;;5048729;28;20045;-67
2023/09/26 14:43:39;;;;;;;2.20;0.90;;;;;;;;;;5049233;28;20080;-70
2023/09/26 14:46:06;;;;;;;3.25;1.00;;;;;;;;;;5048634;28;20666;-69
2023/09/26 14:48:32;;;;;;;2.08;1.10;;;;;;;;;;5049021;28;20087;-70